GQPPGOGG

Guest
Details From GQPP - NOUADHIBOU
To GOGG - ZIGUINCHOR
Flight Number -
Tags generated
Created
Modified
Stats Distance 521 nm / 966 km
Max Altitude 34,000 ft / 10,363 m
Waypoints 8
Social Downloads 2
Likes 0
Share VATSIM

Download

Looking for another format? Having issues loading an existing format? Contact us
Advertisement - Login to hide

Notes

Basic altitude profile: - Ascent Rate: 2500ft/min - Ascent Speed: 250kts - Cruise Altitude: 35000ft - Cruise Speed: 420kts - Descent Rate: 1500ft/min - Descent Speed: 250kts Options: - Use NATs: yes - Use PACOTS: yes - Use low airways: yes - Use high airways: yes

Route

GQPP PE B600F NULET UB600 YF B600F ND GOGG

ID Type Via Altitude Latitude Longitude Leg Dist Tot Dist Heading (true) Name
O GQPP APT - 0 ft / 0 m 20.93293˚ -17.02991˚ - 0 nm - NOUADHIBOU
PE VOR - 400 ft / 122 m 20.91444˚ -17.03497˚ 1 nm 1 nm 194° / 194° NOUADHIBOU VOR-DME
TUSUR FIX B600F (AWY-LO) 20,900 ft / 6,370 m 19.91306˚ -17.10861˚ 60 nm 61 nm 184° / 184° -
NULET FIX B600F (AWY-LO) 24,500 ft / 7,468 m 18.41806˚ -17.21667˚ 89 nm 151 nm 184° / 184° -
LIMAX FIX UB600 (AWY-HI) 34,000 ft / 10,363 m 16.74861˚ -17.33528˚ 100 nm 251 nm 184° / 184° -
YF VOR UB600 (AWY-HI) 30,900 ft / 9,418 m 14.74483˚ -17.47478˚ 120 nm 372 nm 184° / 184° DAKAR VOR-DME
ND NDB B600F (AWY-LO) 11,200 ft / 3,414 m 13.34538˚ -16.65744˚ 96 nm 469 nm 150° / 151° BANJUL NDB
O GOGG APT - 0 ft / 0 m 12.55562˚ -16.28178˚ 52 nm 521 nm 155° / 155° ZIGUINCHOR

Altitude Profile

Advertisement - Login to hide

Weather


0- 5 10 15 20 25 30 35+ Temperature / ° C

Clouds and Precipitation
Forecast for 2017-12-16 18:00 UTC. Updated a few seconds ago

Ground ~20,000 ft ~40,000 ft Winds

GQPP

Details ICAO GQPP (NDB)
Name NOUADHIBOU
Region Mauritania
Timezone Africa/Nouakchott (UTC+0.0)
Stats Elevation 16 ft / 5 m (AMSL)
Location 20.932931° -17.029914°
Runways 1
Magnetic Variation 6.046° W

METAR

GQPP 161300Z 06011KT 8000 NSC 23/10 Q1020 NOSIG

Decode

TAF

TAF GQPP 161100Z 1612/1712 04014KT 6000 NSC TEMPO 1612/1618 4000 BLSA

Decode

Departure Runways

ID Width Length Bearing (true) Bearing (mag) Surface Threshold Offset Overrun Length
02 148 ft / 45 m 7,995 ft / 2,437 m 14.33° 20.38° Asphalt 0 ft / 0 m 0 ft / 0 m
20 148 ft / 45 m 7,995 ft / 2,437 m 194.33° 200.38° Asphalt 0 ft / 0 m 0 ft / 0 m

GOGG

Details ICAO GOGG (ZIG)
Name ZIGUINCHOR
Region Senegal
Timezone Africa/Dakar (UTC+0.0)
Stats Elevation 75 ft / 23 m (AMSL)
Location 12.555615° -16.281783°
Runways 1
Magnetic Variation 7.342° W

METAR

GOGG 161200Z 02008KT CAVOK 27/08 Q1014

Decode

TAF

Not found

Destination Runways

ID Width Length Bearing (true) Bearing (mag) Surface Threshold Offset Overrun Length
10 98 ft / 30 m 5,065 ft / 1,544 m 87.88° 95.22° Asphalt 0 ft / 0 m 197 ft / 60 m
28 98 ft / 30 m 5,065 ft / 1,544 m 267.88° 275.22° Asphalt 0 ft / 0 m 0 ft / 0 m